Gulf Bridge — A8JM5 — position and weather

sailwx.info

Track history (hours):
 
Tides and Currents Weather Stations Pressure Air Temp Water Temp Dewpoint Dewpoint Depression Visibility Wind Speed Wind Dir Waves Ship Positions

Gulf Bridge

Last reported at 2014-Dec-15 17:28 UTC. Time now 2014-Dec-20 19:26 UTC.
Position S 36°32' E 175°52'.

Length 213 m; beam 32.2 m; draft 11.5 m.

Type: Cargo ship. MMSI: 636091115.

Date/timePositionNaut miles runAvg speedWind from/ knotsBaromVisibWave heightAir tempDewpointWater temp
2014-Dec-15 17:28S 36°32' E 175°52'1817.3
2014-Dec-15 16:26S 36°26' E 175°31'1112.9
2014-Dec-15 15:33S 36°25' E 175°17'1010.4
2014-Dec-15 14:33S 36°32' E 175°07'1010.4
2014-Dec-15 13:33S 36°38' E 174°57'1010.1
2014-Dec-15 12:33S 36°46' E 174°49'5 5.0
2014-Dec-15 11:33S 36°51' E 174°47'0 0.0
2014-Dec-15 10:31S 36°51' E 174°47'0 0.0
2014-Dec-15 09:32S 36°51' E 174°47'0 0.0
2014-Dec-15 08:32S 36°51' E 174°47'0 0.0
2014-Dec-15 07:26S 36°51' E 174°47'0 0.0
2014-Dec-15 06:32S 36°51' E 174°47'0 0.0
2014-Dec-15 05:32S 36°51' E 174°47'0 0.0
2014-Dec-15 04:29S 36°51' E 174°47'0 0.0
2014-Dec-15 03:23S 36°51' E 174°47'0 0.0
2014-Dec-15 02:29S 36°51' E 174°47'0 0.0
2014-Dec-15 01:32S 36°51' E 174°47'0 0.0
2014-Dec-15 00:32S 36°51' E 174°47'0 0.0
2014-Dec-14 23:29S 36°51' E 174°47'0 0.0
2014-Dec-14 22:32S 36°51' E 174°47'0 0.0
2014-Dec-14 21:26S 36°51' E 174°47'0 0.0
2014-Dec-14 20:26S 36°51' E 174°47'0 0.0
2014-Dec-14 19:32S 36°51' E 174°47'0 0.0
2014-Dec-14 18:23S 36°51' E 174°47'0 0.0
2014-Dec-14 17:32S 36°51' E 174°47'3 3.1
2014-Dec-14 16:34S 36°49' E 174°50'7 6.8
2014-Dec-14 15:33S 36°42' E 174°52'9 8.9
2014-Dec-14 14:33S 36°35' E 174°58'9 9.3
2014-Dec-14 13:33S 36°25' E 174°59'10 9.7
2014-Dec-14 12:33S 36°16' E 174°58'  
2014-Dec-08 06:34S 39°19' E 147°30'1717.2
2014-Dec-08 05:33S 39°19' E 147°08'1717.0
2014-Dec-08 04:33S 39°18' E 146°46'1616.5
2014-Dec-08 03:33S 39°17' E 146°24'1515.5
2014-Dec-08 02:33S 39°12' E 146°06'1615.8
2014-Dec-08 01:33S 39°04' E 145°48'2115.0
2014-Dec-08 00:08S 38°52' E 145°25'6 0.2
2014-Dec-06 10:18S 38°54' E 145°33'1013.4
2014-Dec-06 09:33S 38°59' E 145°44'1313.5
2014-Dec-06 08:33S 39°05' E 145°59'1414.1
2014-Dec-06 07:34S 39°12' E 146°15'1514.5
2014-Dec-06 06:34S 39°08' E 146°33'1414.0
2014-Dec-06 05:34S 39°03' E 146°50'1413.7
2014-Dec-06 04:34S 38°59' E 147°07'1413.6
2014-Dec-06 03:33S 38°55' E 147°24'5714.3
2014-Dec-05 23:33S 38°35' E 148°32'1514.1
2014-Dec-05 22:27S 38°27' E 148°49'1416.0
2014-Dec-05 21:33S 38°19' E 149°04'1916.9
2014-Dec-05 20:27S 38°07' E 149°22'  
Track history (hours):
 
Tides and Currents Weather Stations Pressure Air Temp Water Temp Dewpoint Dewpoint Depression Visibility Wind Speed Wind Dir Waves Ship Positions

Gulf Bridge

Last reported at 2014-Dec-15 17:28 UTC. Time now 2014-Dec-20 19:26 UTC.
Position S 36°32' E 175°52'.

Length 213 m; beam 32.2 m; draft 11.5 m.

Type: Cargo ship. MMSI: 636091115.

Date/timePositionNaut miles runAvg speedWind from/ knotsBaromVisibWave heightAir tempDewpointWater temp
2014-Dec-15 17:28S 36°32' E 175°52'1817.3
2014-Dec-15 16:26S 36°26' E 175°31'1112.9
2014-Dec-15 15:33S 36°25' E 175°17'1010.4
2014-Dec-15 14:33S 36°32' E 175°07'1010.4
2014-Dec-15 13:33S 36°38' E 174°57'1010.1
2014-Dec-15 12:33S 36°46' E 174°49'5 5.0
2014-Dec-15 11:33S 36°51' E 174°47'0 0.0
2014-Dec-15 10:31S 36°51' E 174°47'0 0.0
2014-Dec-15 09:32S 36°51' E 174°47'0 0.0
2014-Dec-15 08:32S 36°51' E 174°47'0 0.0
2014-Dec-15 07:26S 36°51' E 174°47'0 0.0
2014-Dec-15 06:32S 36°51' E 174°47'0 0.0
2014-Dec-15 05:32S 36°51' E 174°47'0 0.0
2014-Dec-15 04:29S 36°51' E 174°47'0 0.0
2014-Dec-15 03:23S 36°51' E 174°47'0 0.0
2014-Dec-15 02:29S 36°51' E 174°47'0 0.0
2014-Dec-15 01:32S 36°51' E 174°47'0 0.0
2014-Dec-15 00:32S 36°51' E 174°47'0 0.0
2014-Dec-14 23:29S 36°51' E 174°47'0 0.0
2014-Dec-14 22:32S 36°51' E 174°47'0 0.0
2014-Dec-14 21:26S 36°51' E 174°47'0 0.0
2014-Dec-14 20:26S 36°51' E 174°47'0 0.0
2014-Dec-14 19:32S 36°51' E 174°47'0 0.0
2014-Dec-14 18:23S 36°51' E 174°47'0 0.0
2014-Dec-14 17:32S 36°51' E 174°47'3 3.1
2014-Dec-14 16:34S 36°49' E 174°50'7 6.8
2014-Dec-14 15:33S 36°42' E 174°52'9 8.9
2014-Dec-14 14:33S 36°35' E 174°58'9 9.3
2014-Dec-14 13:33S 36°25' E 174°59'10 9.7
2014-Dec-14 12:33S 36°16' E 174°58'  
2014-Dec-08 06:34S 39°19' E 147°30'1717.2
2014-Dec-08 05:33S 39°19' E 147°08'1717.0
2014-Dec-08 04:33S 39°18' E 146°46'1616.5
2014-Dec-08 03:33S 39°17' E 146°24'1515.5
2014-Dec-08 02:33S 39°12' E 146°06'1615.8
2014-Dec-08 01:33S 39°04' E 145°48'2115.0
2014-Dec-08 00:08S 38°52' E 145°25'6 0.2
2014-Dec-06 10:18S 38°54' E 145°33'1013.4
2014-Dec-06 09:33S 38°59' E 145°44'1313.5
2014-Dec-06 08:33S 39°05' E 145°59'1414.1
2014-Dec-06 07:34S 39°12' E 146°15'1514.5
2014-Dec-06 06:34S 39°08' E 146°33'1414.0
2014-Dec-06 05:34S 39°03' E 146°50'1413.7
2014-Dec-06 04:34S 38°59' E 147°07'1413.6
2014-Dec-06 03:33S 38°55' E 147°24'5714.3
2014-Dec-05 23:33S 38°35' E 148°32'1514.1
2014-Dec-05 22:27S 38°27' E 148°49'1416.0
2014-Dec-05 21:33S 38°19' E 149°04'1916.9
2014-Dec-05 20:27S 38°07' E 149°22'  

Dump ship's entire track history